Aviation Digital Data Service (ADDS)

Output produced by METARs form (1058 UTC 06 March 2015)
found at http://aviationweather.gov/adds/metars/
 
KART 060905Z 0609/0706 VRB03KT P6SM FEW250 
     FM061300 21006KT P6SM FEW250 
     FM061600 22010KT P6SM FEW035 SCT250 
     FM061900 22014G20KT P6SM FEW035 SCT250 
     FM062300 21010KT P6SM BKN250